createdAt,value
2016-06-15T00:00:08.424Z,20.58
2016-06-15T00:01:08.444Z,20.54
2016-06-15T00:02:08.478Z,20.58
2016-06-15T00:03:08.497Z,20.62
2016-06-15T00:04:08.516Z,20.66
2016-06-15T00:05:09.128Z,20.55
2016-06-15T00:06:08.568Z,20.69
2016-06-15T00:07:08.603Z,20.54
2016-06-15T00:08:08.653Z,20.66
2016-06-15T00:09:08.656Z,20.57
2016-06-15T00:10:08.675Z,20.52
2016-06-15T00:11:08.693Z,20.55
2016-06-15T00:12:08.728Z,20.51
2016-06-15T00:13:08.589Z,20.61
2016-06-15T00:14:08.781Z,20.54
2016-06-15T00:15:08.815Z,20.66
2016-06-15T00:16:08.834Z,20.57
2016-06-15T00:17:08.852Z,20.57
2016-06-15T00:18:08.871Z,20.62
2016-06-15T00:19:08.905Z,20.62
2016-06-15T00:20:08.940Z,20.61
2016-06-15T00:21:08.959Z,20.64
2016-06-15T00:22:08.977Z,20.64
2016-06-15T00:23:09.012Z,20.57
2016-06-15T00:24:09.030Z,20.55
2016-06-15T00:25:08.893Z,20.61
2016-06-15T00:26:09.083Z,20.61
2016-06-15T00:27:09.118Z,20.57
2016-06-15T00:28:08.979Z,20.54
2016-06-15T00:29:09.171Z,20.62
2016-06-15T00:30:09.188Z,20.51
2016-06-15T00:31:09.208Z,20.55
2016-06-15T00:32:09.242Z,20.58
2016-06-15T00:33:09.261Z,20.58
2016-06-15T00:34:09.295Z,20.57
2016-06-15T00:35:09.611Z,20.66
2016-06-15T00:36:09.380Z,20.52
2016-06-15T00:37:09.367Z,20.66
2016-06-15T00:38:09.401Z,20.52
2016-06-15T00:39:09.436Z,20.62
2016-06-15T00:40:09.439Z,20.61
2016-06-15T00:41:09.316Z,20.67
2016-06-15T00:42:09.492Z,20.64
2016-06-15T00:43:09.526Z,20.61
2016-06-15T00:44:09.545Z,20.59
2016-06-15T00:45:09.579Z,20.58
2016-06-15T00:46:09.598Z,20.62
2016-06-15T00:47:09.648Z,20.59
2016-06-15T00:48:09.651Z,20.58
2016-06-15T00:49:09.669Z,20.55
2016-06-15T00:50:09.719Z,20.59
2016-06-15T00:51:09.739Z,20.64
2016-06-15T00:52:09.756Z,20.59
2016-06-15T00:53:09.776Z,20.67
2016-06-15T00:54:09.810Z,20.58
2016-06-15T00:55:09.829Z,20.58
2016-06-15T00:56:09.863Z,20.64
2016-06-15T00:57:09.725Z,20.64
2016-06-15T00:58:09.931Z,20.61
2016-06-15T00:59:10.002Z,20.62
2016-06-15T01:00:10.073Z,20.54
2016-06-15T01:01:10.127Z,20.61
2016-06-15T01:02:10.057Z,20.7
2016-06-15T01:03:10.234Z,20.66
2016-06-15T01:04:10.266Z,20.67
2016-06-15T01:05:10.344Z,20.64
2016-06-15T01:06:10.360Z,20.61
2016-06-15T01:07:10.376Z,20.54
2016-06-15T01:08:10.417Z,20.67
2016-06-15T01:09:10.441Z,20.5
2016-06-15T01:10:10.480Z,20.59
2016-06-15T01:11:10.504Z,20.58
2016-06-15T01:12:10.542Z,20.61
2016-06-15T01:13:10.564Z,20.54
2016-06-15T01:14:10.599Z,20.55
2016-06-15T01:15:10.620Z,20.66
2016-06-15T01:16:10.656Z,20.61
2016-06-15T01:17:10.676Z,20.55
2016-06-15T01:18:10.743Z,20.64
2016-06-15T01:19:10.731Z,20.5
2016-06-15T01:20:11.375Z,20.58
2016-06-15T01:21:10.786Z,20.57
2016-06-15T01:22:10.805Z,20.54
2016-06-15T01:23:10.839Z,20.52
2016-06-15T01:24:10.858Z,20.57
2016-06-15T01:25:10.892Z,20.55
2016-06-15T01:26:10.927Z,20.57
2016-06-15T01:27:10.946Z,20.57
2016-06-15T01:28:10.964Z,20.61
2016-06-15T01:29:10.999Z,20.55
2016-06-15T01:30:11.017Z,20.54
2016-06-15T01:31:11.036Z,20.51
2016-06-15T01:32:11.070Z,20.47
2016-06-15T01:33:11.089Z,20.54
2016-06-15T01:34:11.122Z,20.52
2016-06-15T01:35:11.548Z,20.58
2016-06-15T01:36:11.175Z,20.59
2016-06-15T01:37:11.195Z,20.66
2016-06-15T01:38:11.229Z,20.61
2016-06-15T01:39:11.248Z,20.61
2016-06-15T01:40:11.266Z,20.62
2016-06-15T01:41:11.316Z,20.54
2016-06-15T01:42:11.335Z,20.57
2016-06-15T01:43:11.197Z,20.59
2016-06-15T01:44:11.389Z,20.48
2016-06-15T01:45:11.406Z,20.59
2016-06-15T01:46:11.456Z,20.59
2016-06-15T01:47:11.303Z,20.61
2016-06-15T01:48:11.479Z,20.62
2016-06-15T01:49:11.513Z,20.58
2016-06-15T01:50:11.688Z,20.57
2016-06-15T01:51:11.410Z,20.58
2016-06-15T01:52:11.585Z,20.54
2016-06-15T01:53:11.603Z,20.61
2016-06-15T01:54:11.622Z,20.54
2016-06-15T01:55:11.672Z,20.57
2016-06-15T01:56:11.690Z,20.55
2016-06-15T01:57:11.740Z,20.59
2016-06-15T01:58:11.743Z,20.54
2016-06-15T01:59:11.763Z,20.57
2016-06-15T02:00:11.625Z,20.55
2016-06-15T02:01:11.816Z,20.57
2016-06-15T02:02:11.834Z,20.51
2016-06-15T02:03:11.869Z,20.58
2016-06-15T02:04:11.887Z,20.59
2016-06-15T02:05:12.281Z,20.54
2016-06-15T02:06:11.971Z,20.61
2016-06-15T02:07:11.974Z,20.55
2016-06-15T02:08:11.993Z,20.58
2016-06-15T02:09:12.027Z,20.5
2016-06-15T02:10:12.062Z,20.41
2016-06-15T02:11:12.081Z,20.36
2016-06-15T02:12:12.100Z,20.55
2016-06-15T02:13:12.134Z,20.51
2016-06-15T02:14:12.153Z,20.36
2016-06-15T02:15:12.015Z,20.35
2016-06-15T02:16:12.206Z,20.33
2016-06-15T02:17:12.240Z,20.42
2016-06-15T02:18:12.258Z,20.47
2016-06-15T02:19:12.277Z,20.39
2016-06-15T02:20:13.030Z,20.51
2016-06-15T02:21:12.517Z,20.5
2016-06-15T02:22:12.350Z,20.59
2016-06-15T02:23:12.383Z,20.58
2016-06-15T02:24:12.418Z,20.5
2016-06-15T02:25:12.436Z,20.54
2016-06-15T02:26:12.501Z,20.42
2016-06-15T02:27:12.489Z,20.43
2016-06-15T02:28:12.508Z,20.31
2016-06-15T02:29:12.541Z,20.41
2016-06-15T02:30:12.561Z,20.5
2016-06-15T02:31:12.579Z,20.42
2016-06-15T02:32:12.614Z,20.48
2016-06-15T02:33:12.648Z,20.5
2016-06-15T02:34:12.667Z,20.41
2016-06-15T02:35:13.326Z,20.29
2016-06-15T02:36:12.735Z,20.33
2016-06-15T02:37:12.738Z,20.31
2016-06-15T02:38:12.773Z,20.32
2016-06-15T02:39:12.807Z,20.43
2016-06-15T02:40:12.825Z,20.42
2016-06-15T02:41:12.845Z,20.5
2016-06-15T02:42:12.863Z,20.41
2016-06-15T02:43:12.898Z,20.52
2016-06-15T02:44:12.917Z,20.55
2016-06-15T02:45:12.951Z,20.52
2016-06-15T02:46:12.969Z,20.47
2016-06-15T02:47:13.004Z,20.38
2016-06-15T02:48:13.022Z,20.33
2016-06-15T02:49:13.088Z,20.38
2016-06-15T02:50:13.123Z,20.38
2016-06-15T02:51:13.453Z,20.38
2016-06-15T02:52:13.129Z,20.52
2016-06-15T02:53:13.147Z,20.61
2016-06-15T02:54:13.182Z,20.57
2016-06-15T02:55:13.216Z,20.41
2016-06-15T02:56:13.235Z,20.43
2016-06-15T02:57:13.252Z,20.33
2016-06-15T02:58:13.288Z,20.41
2016-06-15T02:59:13.321Z,20.42
2016-06-15T03:00:13.356Z,20.42
2016-06-15T03:01:13.375Z,20.41
2016-06-15T03:02:13.410Z,20.42
2016-06-15T03:03:13.412Z,20.41
2016-06-15T03:04:13.274Z,20.36
2016-06-15T03:05:13.465Z,20.48
2016-06-15T03:06:13.500Z,20.43
2016-06-15T03:07:13.519Z,20.5
2016-06-15T03:08:13.537Z,20.39
2016-06-15T03:09:13.572Z,20.48
2016-06-15T03:10:13.589Z,20.36
2016-06-15T03:11:13.609Z,20.51
2016-06-15T03:12:13.643Z,20.41
2016-06-15T03:13:13.662Z,20.48
2016-06-15T03:14:13.696Z,20.54
2016-06-15T03:15:13.715Z,20.43
2016-06-15T03:16:13.749Z,20.39
2016-06-15T03:17:13.769Z,20.47
2016-06-15T03:18:13.646Z,20.42
2016-06-15T03:19:13.820Z,20.42
2016-06-15T03:20:13.839Z,20.48
2016-06-15T03:21:14.326Z,20.47
2016-06-15T03:22:13.908Z,20.55
2016-06-15T03:23:13.927Z,20.57
2016-06-15T03:24:13.945Z,20.51
2016-06-15T03:25:13.980Z,20.42
2016-06-15T03:26:13.999Z,20.43
2016-06-15T03:27:14.033Z,20.48
2016-06-15T03:28:14.067Z,20.62
2016-06-15T03:29:14.086Z,20.58
2016-06-15T03:30:14.104Z,20.47
2016-06-15T03:31:14.139Z,20.51
2016-06-15T03:32:14.157Z,20.42
2016-06-15T03:33:14.176Z,20.54
2016-06-15T03:34:14.211Z,20.66
2016-06-15T03:35:14.229Z,20.51
2016-06-15T03:36:14.420Z,20.43
2016-06-15T03:37:14.283Z,20.42
2016-06-15T03:38:14.333Z,20.42
2016-06-15T03:39:14.351Z,20.47
2016-06-15T03:40:14.354Z,20.33
2016-06-15T03:41:14.388Z,20.42
2016-06-15T03:42:14.438Z,20.58
2016-06-15T03:43:14.441Z,20.59
2016-06-15T03:44:14.460Z,20.61
2016-06-15T03:45:14.495Z,20.58
2016-06-15T03:46:14.513Z,20.58
2016-06-15T03:47:14.548Z,20.52
2016-06-15T03:48:14.566Z,20.47
2016-06-15T03:49:14.601Z,20.62
2016-06-15T03:50:14.619Z,20.54
2016-06-15T03:51:14.935Z,20.41
2016-06-15T03:52:14.671Z,20.57
2016-06-15T03:53:14.707Z,20.59
2016-06-15T03:54:14.724Z,20.48
2016-06-15T03:55:14.744Z,20.54
2016-06-15T03:56:14.763Z,20.51
2016-06-15T03:57:14.797Z,20.61
2016-06-15T03:58:14.816Z,20.61
2016-06-15T03:59:14.850Z,20.54
2016-06-15T04:00:14.868Z,20.57
2016-06-15T04:01:14.950Z,20.59
2016-06-15T04:02:14.937Z,20.39
2016-06-15T04:03:14.956Z,20.41
2016-06-15T04:04:14.974Z,20.43
2016-06-15T04:05:14.994Z,20.42
2016-06-15T04:06:15.044Z,20.57
2016-06-15T04:07:15.078Z,20.47
2016-06-15T04:08:15.081Z,20.47
2016-06-15T04:09:15.099Z,20.47
2016-06-15T04:10:15.134Z,20.5
2016-06-15T04:11:15.152Z,20.61
2016-06-15T04:12:15.187Z,20.47
2016-06-15T04:13:15.221Z,20.55
2016-06-15T04:14:15.239Z,20.48
2016-06-15T04:15:15.259Z,20.59
2016-06-15T04:16:15.292Z,20.62
2016-06-15T04:17:15.156Z,20.61
2016-06-15T04:18:15.331Z,20.64
2016-06-15T04:19:15.365Z,20.64
2016-06-15T04:20:15.383Z,20.67
2016-06-15T04:21:15.465Z,20.62
2016-06-15T04:22:15.452Z,20.58
2016-06-15T04:23:15.471Z,20.66
2016-06-15T04:24:15.490Z,20.48
2016-06-15T04:25:15.523Z,20.51
2016-06-15T04:26:15.543Z,20.55
2016-06-15T04:27:15.561Z,20.54
2016-06-15T04:28:15.596Z,20.58
2016-06-15T04:29:15.615Z,20.62
2016-06-15T04:30:15.649Z,20.61
2016-06-15T04:31:15.667Z,20.51
2016-06-15T04:32:15.702Z,20.55
2016-06-15T04:33:15.736Z,20.59
2016-06-15T04:34:15.755Z,20.5
2016-06-15T04:35:15.773Z,20.54
2016-06-15T04:36:16.198Z,20.58
2016-06-15T04:37:15.826Z,20.61
2016-06-15T04:38:15.860Z,20.62
2016-06-15T04:39:15.879Z,20.64
2016-06-15T04:40:15.899Z,20.55
2016-06-15T04:41:15.932Z,20.64
2016-06-15T04:42:15.966Z,20.61
2016-06-15T04:43:15.969Z,20.59
2016-06-15T04:44:16.003Z,20.66
2016-06-15T04:45:16.022Z,20.62
2016-06-15T04:46:16.057Z,20.67
2016-06-15T04:47:16.090Z,20.67
2016-06-15T04:48:16.110Z,20.64
2016-06-15T04:49:16.129Z,20.69
2016-06-15T04:50:16.163Z,20.61
2016-06-15T04:51:16.463Z,20.74
2016-06-15T04:52:16.216Z,20.79
2016-06-15T04:53:16.234Z,20.79
2016-06-15T04:54:16.269Z,20.73
2016-06-15T04:55:16.287Z,20.72
2016-06-15T04:56:16.306Z,20.8
2016-06-15T04:57:16.341Z,20.76
2016-06-15T04:58:16.359Z,20.7
2016-06-15T04:59:16.394Z,20.76
2016-06-15T05:00:16.412Z,20.62
2016-06-15T05:01:16.447Z,20.73
2016-06-15T05:02:16.466Z,20.74
2016-06-15T05:03:16.328Z,20.69
2016-06-15T05:04:16.534Z,20.76
2016-06-15T05:05:16.553Z,20.8
2016-06-15T05:06:16.946Z,20.79
2016-06-15T05:07:16.590Z,20.91
2016-06-15T05:08:16.625Z,20.89
2016-06-15T05:09:16.643Z,20.88
2016-06-15T05:10:16.678Z,20.88
2016-06-15T05:11:16.696Z,20.91
2016-06-15T05:12:16.731Z,20.87
2016-06-15T05:13:16.750Z,20.85
2016-06-15T05:14:16.768Z,20.88
2016-06-15T05:15:16.802Z,20.94
2016-06-15T05:16:16.821Z,20.88
2016-06-15T05:17:16.855Z,20.85
2016-06-15T05:18:16.733Z,20.88
2016-06-15T05:19:16.909Z,20.99
2016-06-15T05:20:16.927Z,21.06
2016-06-15T05:21:17.009Z,21.38
2016-06-15T05:22:16.995Z,21.24
2016-06-15T05:23:17.015Z,21.25
2016-06-15T05:24:17.033Z,21.27
2016-06-15T05:25:17.052Z,21.29
2016-06-15T05:26:17.085Z,21.46
2016-06-15T05:27:17.121Z,21.65
2016-06-15T05:28:17.139Z,21.59
2016-06-15T05:29:17.158Z,21.58
2016-06-15T05:30:17.036Z,21.59
2016-06-15T05:31:17.211Z,21.59
2016-06-15T05:32:17.245Z,21.58
2016-06-15T05:33:17.107Z,21.56
2016-06-15T05:34:17.298Z,21.56
2016-06-15T05:35:17.318Z,21.58
2016-06-15T05:36:17.366Z,21.58
2016-06-15T05:37:17.369Z,21.67
2016-06-15T05:38:17.404Z,21.72
2016-06-15T05:39:17.422Z,21.8
2016-06-15T05:40:17.457Z,21.8
2016-06-15T05:41:17.476Z,21.88
2016-06-15T05:42:17.495Z,21.94
2016-06-15T05:43:17.559Z,21.94
2016-06-15T05:44:17.548Z,22
2016-06-15T05:45:17.582Z,21.9
2016-06-15T05:46:17.633Z,21.91
2016-06-15T05:47:17.635Z,21.82
2016-06-15T05:48:17.654Z,21.74
2016-06-15T05:49:17.688Z,21.8
2016-06-15T05:50:17.706Z,21.77
2016-06-15T05:51:18.178Z,21.79
2016-06-15T05:52:17.760Z,21.8
2016-06-15T05:53:17.793Z,21.75
2016-06-15T05:54:17.813Z,21.77
2016-06-15T05:55:17.846Z,21.8
2016-06-15T05:56:17.866Z,21.82
2016-06-15T05:57:17.900Z,21.77
2016-06-15T05:58:17.919Z,21.77
2016-06-15T05:59:17.953Z,21.77
2016-06-15T06:00:17.972Z,21.82
2016-06-15T06:01:17.990Z,21.82
2016-06-15T06:02:18.026Z,21.88
2016-06-15T06:03:18.074Z,21.91
2016-06-15T06:04:18.094Z,21.96
2016-06-15T06:05:18.112Z,21.9
2016-06-15T06:06:18.552Z,21.9
2016-06-15T06:07:18.166Z,21.83
2016-06-15T06:08:18.184Z,21.83
2016-06-15T06:09:18.233Z,21.9
2016-06-15T06:10:18.253Z,21.9
2016-06-15T06:11:18.271Z,21.92
2016-06-15T06:12:18.290Z,21.84
2016-06-15T06:13:18.341Z,21.82
2016-06-15T06:14:18.358Z,21.75
2016-06-15T06:15:18.394Z,21.96
2016-06-15T06:16:18.411Z,21.82
2016-06-15T06:17:18.431Z,21.91
2016-06-15T06:18:18.464Z,21.92
2016-06-15T06:19:18.484Z,21.99
2016-06-15T06:20:18.502Z,21.99
2016-06-15T06:21:18.396Z,22.05
2016-06-15T06:22:18.571Z,22.03
2016-06-15T06:23:18.590Z,21.96
2016-06-15T06:24:18.452Z,22.02
2016-06-15T06:25:18.642Z,22.02
2016-06-15T06:26:18.677Z,21.96
2016-06-15T06:27:18.695Z,22.05
2016-06-15T06:28:18.714Z,22
2016-06-15T06:29:18.749Z,21.99
2016-06-15T06:30:18.782Z,22.09
2016-06-15T06:31:18.802Z,22.03
2016-06-15T06:32:18.835Z,22
2016-06-15T06:33:18.871Z,22.05
2016-06-15T06:34:18.889Z,21.99
2016-06-15T06:35:18.908Z,22.06
2016-06-15T06:36:18.942Z,22.06
2016-06-15T06:37:18.960Z,22.05
2016-06-15T06:38:18.995Z,22.05
2016-06-15T06:39:19.014Z,22.03
2016-06-15T06:40:19.048Z,22
2016-06-15T06:41:19.066Z,21.99
2016-06-15T06:42:19.101Z,22
2016-06-15T06:43:19.135Z,21.9
2016-06-15T06:44:18.997Z,21.86
2016-06-15T06:45:19.189Z,21.88
2016-06-15T06:46:19.206Z,21.84
2016-06-15T06:47:19.226Z,21.75
2016-06-15T06:48:19.259Z,21.79
2016-06-15T06:49:19.295Z,21.86
2016-06-15T06:50:19.313Z,21.86
2016-06-15T06:51:19.894Z,21.77
2016-06-15T06:52:19.397Z,21.74
2016-06-15T06:53:19.400Z,21.77
2016-06-15T06:54:19.419Z,21.72
2016-06-15T06:55:19.454Z,21.69
2016-06-15T06:56:19.316Z,21.71
2016-06-15T06:57:19.585Z,21.71
2016-06-15T06:58:19.556Z,21.69
2016-06-15T06:59:19.560Z,21.74
2016-06-15T07:00:19.579Z,21.77
2016-06-15T07:01:19.613Z,21.8
2016-06-15T07:02:19.631Z,21.83
2016-06-15T07:03:19.666Z,21.88
2016-06-15T07:04:19.684Z,21.75
2016-06-15T07:05:19.719Z,21.79
2016-06-15T07:06:20.159Z,21.8
2016-06-15T07:07:19.771Z,21.83
2016-06-15T07:08:19.806Z,21.75
2016-06-15T07:09:20.027Z,21.83
2016-06-15T07:10:19.843Z,21.77
2016-06-15T07:11:19.878Z,21.79
2016-06-15T07:12:19.958Z,21.74
2016-06-15T07:13:19.775Z,21.82
2016-06-15T07:14:19.949Z,21.75
2016-06-15T07:15:19.984Z,22.03
2016-06-15T07:16:20.003Z,22.12
2016-06-15T07:17:20.037Z,22.2
2016-06-15T07:18:20.071Z,22.22
2016-06-15T07:19:20.090Z,22.35
2016-06-15T07:20:20.124Z,22.46
2016-06-15T07:21:20.878Z,22.61
2016-06-15T07:22:20.192Z,23
2016-06-15T07:23:20.227Z,23.46
2016-06-15T07:24:20.230Z,24.37
2016-06-15T07:25:20.249Z,24.93
2016-06-15T07:26:20.298Z,24.25
2016-06-15T07:27:20.302Z,24.76
2016-06-15T07:28:20.336Z,25.2
2016-06-15T07:29:20.371Z,25.21
2016-06-15T07:30:20.389Z,24.84
2016-06-15T07:31:20.424Z,24.27
2016-06-15T07:32:20.442Z,24.31
2016-06-15T07:33:20.476Z,24.6
2016-06-15T07:34:20.511Z,24.85
2016-06-15T07:35:20.529Z,24.53
2016-06-15T07:36:20.970Z,24.3
2016-06-15T07:37:20.832Z,24.3
2016-06-15T07:38:20.616Z,24.09
2016-06-15T07:39:20.651Z,24
2016-06-15T07:40:20.717Z,24.13
2016-06-15T07:41:20.720Z,24.34
2016-06-15T07:42:20.722Z,24.35
2016-06-15T07:43:20.789Z,24.2
2016-06-15T07:44:20.807Z,24.32
2016-06-15T07:45:20.810Z,24.22
2016-06-15T07:46:20.845Z,24.24
2016-06-15T07:47:20.863Z,24.2
2016-06-15T07:48:20.897Z,24.3
2016-06-15T07:49:20.932Z,24.39
2016-06-15T07:50:20.950Z,25.18
2016-06-15T07:51:22.000Z,25.54
2016-06-15T07:52:21.035Z,25.65
2016-06-15T07:53:21.037Z,26.07
2016-06-15T07:54:21.072Z,26.3
2016-06-15T07:55:21.091Z,26.35
2016-06-15T07:56:21.126Z,26.07
2016-06-15T07:57:21.175Z,25.77
2016-06-15T07:58:21.193Z,25.79
2016-06-15T07:59:21.228Z,26.12
2016-06-15T08:00:21.247Z,26.21
2016-06-15T08:01:21.281Z,25.85
2016-06-15T08:02:21.659Z,25.42
2016-06-15T08:03:21.334Z,25.3
2016-06-15T08:04:21.384Z,25.08
2016-06-15T08:05:21.387Z,24.9
2016-06-15T08:06:21.875Z,24.78
2016-06-15T08:07:22.268Z,24.77
2016-06-15T08:08:21.475Z,24.84
2016-06-15T08:09:21.525Z,24.88
2016-06-15T08:10:21.543Z,24.68
2016-06-15T08:11:21.578Z,24.73
2016-06-15T08:12:21.580Z,24.8
2016-06-15T08:13:21.615Z,24.73
2016-06-15T08:14:21.493Z,24.76
2016-06-15T08:15:21.684Z,24.83
2016-06-15T08:16:21.719Z,24.9
2016-06-15T08:17:21.736Z,24.87
2016-06-15T08:18:21.771Z,24.85
2016-06-15T08:19:21.633Z,24.88
2016-06-15T08:20:21.667Z,24.76
2016-06-15T08:21:21.703Z,24.78
2016-06-15T08:22:25.861Z,24.77
2016-06-15T08:23:21.771Z,24.64
2016-06-15T08:24:21.790Z,24.68
2016-06-15T08:25:21.965Z,24.57
2016-06-15T08:26:21.999Z,24.64
2016-06-15T08:27:22.080Z,24.61
2016-06-15T08:28:22.067Z,24.64
2016-06-15T08:29:21.930Z,24.64
2016-06-15T08:30:21.980Z,24.78
2016-06-15T08:31:21.983Z,25.14
2016-06-15T08:32:22.174Z,25.25
2016-06-15T08:33:22.192Z,25.08
2016-06-15T08:34:22.227Z,25.18
2016-06-15T08:35:22.261Z,25.1
2016-06-15T08:36:22.280Z,25.09
2016-06-15T08:37:22.767Z,25.03
2016-06-15T08:38:22.332Z,24.96
2016-06-15T08:39:22.398Z,24.9
2016-06-15T08:40:22.386Z,24.87
2016-06-15T08:41:22.420Z,24.87
2016-06-15T08:42:22.454Z,24.85
2016-06-15T08:43:22.488Z,24.87
2016-06-15T08:44:22.523Z,24.8
2016-06-15T08:45:22.542Z,24.71
2016-06-15T08:46:22.575Z,24.71
2016-06-15T08:47:22.439Z,24.58
2016-06-15T08:48:22.628Z,24.68
2016-06-15T08:49:22.491Z,24.61
2016-06-15T08:50:22.698Z,24.61
2016-06-15T08:51:22.903Z,24.61
2016-06-15T08:52:23.048Z,24.69
2016-06-15T08:53:22.768Z,24.69
2016-06-15T08:54:22.835Z,24.73
2016-06-15T08:55:22.838Z,24.71
2016-06-15T08:56:22.856Z,24.67
2016-06-15T08:57:22.891Z,24.5
2016-06-15T08:58:22.909Z,24.42
2016-06-15T08:59:22.647Z,24.43
2016-06-15T09:00:28.056Z,24.35
2016-06-15T09:01:27.935Z,24.32
2016-06-15T09:02:23.029Z,24.4
2016-06-15T09:03:23.047Z,24.39
2016-06-15T09:04:23.082Z,24.27
2016-06-15T09:05:23.116Z,24.42
2016-06-15T09:06:23.181Z,24.47
2016-06-15T09:07:23.622Z,24.55
2016-06-15T09:08:23.203Z,24.61
2016-06-15T09:09:23.223Z,24.76
2016-06-15T09:10:23.271Z,24.67
2016-06-15T09:11:23.290Z,24.76
2016-06-15T09:12:23.310Z,24.83
2016-06-15T09:13:34.602Z,24.84
2016-06-15T09:14:23.356Z,24.81
2016-06-15T09:15:23.389Z,24.85
2016-06-15T09:16:23.440Z,24.83
2016-06-15T09:17:23.490Z,24.91
2016-06-15T09:18:23.494Z,24.87
2016-06-15T09:19:23.527Z,24.96
2016-06-15T09:20:23.561Z,24.96
2016-06-15T09:21:23.581Z,24.96
2016-06-15T09:22:23.614Z,24.93
2016-06-15T09:23:23.634Z,24.95
2016-06-15T09:24:23.511Z,24.95
2016-06-15T09:25:23.687Z,24.91
2016-06-15T09:26:23.720Z,24.96
2016-06-15T09:27:23.755Z,24.91
2016-06-15T09:28:23.774Z,24.88
2016-06-15T09:29:23.833Z,24.81
2016-06-15T09:30:23.836Z,24.88
2016-06-15T09:31:23.871Z,24.91
2016-06-15T09:32:23.906Z,24.91
2016-06-15T09:33:23.925Z,24.98
2016-06-15T09:34:23.973Z,25
2016-06-15T09:35:23.993Z,24.99
2016-06-15T09:36:24.012Z,25.03
2016-06-15T09:37:24.045Z,25.14
2016-06-15T09:38:24.064Z,25.09
2016-06-15T09:39:24.098Z,25.2
2016-06-15T09:40:24.133Z,25.13
2016-06-15T09:41:24.152Z,25.23
2016-06-15T09:42:24.202Z,25.32
2016-06-15T09:43:24.220Z,25.18
2016-06-15T09:44:24.239Z,25.18
2016-06-15T09:45:24.274Z,25.17
2016-06-15T09:46:24.307Z,25.09
2016-06-15T09:47:24.326Z,25.08
2016-06-15T09:48:24.204Z,25.18
2016-06-15T09:49:24.255Z,25.15
2016-06-15T09:50:24.460Z,25.1
2016-06-15T09:51:24.448Z,25.13
2016-06-15T09:52:26.201Z,25.13
2016-06-15T09:53:24.517Z,25.1
2016-06-15T09:54:24.534Z,25.02
2016-06-15T09:55:24.570Z,25.14
2016-06-15T09:56:24.588Z,25.03
2016-06-15T09:57:24.623Z,24.96
2016-06-15T09:58:24.657Z,25
2016-06-15T09:59:24.676Z,24.96
2016-06-15T10:00:24.710Z,24.96
2016-06-15T10:01:24.744Z,24.99
2016-06-15T10:02:24.778Z,25.06
2016-06-15T10:03:24.812Z,25.08
2016-06-15T10:04:24.850Z,25.08
2016-06-15T10:05:24.909Z,25.09
2016-06-15T10:06:24.999Z,25.1
2016-06-15T10:07:24.918Z,25.09
2016-06-15T10:08:25.131Z,25.14
2016-06-15T10:09:25.178Z,25.18
2016-06-15T10:10:25.227Z,25.08
2016-06-15T10:11:25.259Z,25.13
2016-06-15T10:12:25.324Z,25.1
2016-06-15T10:13:25.357Z,25.09
2016-06-15T10:14:25.245Z,25.14
2016-06-15T10:15:25.425Z,25.06
2016-06-15T10:16:31.855Z,25.05
2016-06-15T10:17:25.505Z,25.08
2016-06-15T10:18:25.872Z,25.03
2016-06-15T10:19:25.567Z,25.03
2016-06-15T10:20:25.603Z,25.05
2016-06-15T10:21:25.624Z,24.98
2016-06-15T10:22:26.238Z,25.03
2016-06-15T10:23:25.696Z,24.98
2016-06-15T10:24:25.731Z,24.91
2016-06-15T10:25:25.751Z,24.99
2016-06-15T10:26:25.802Z,24.98
2016-06-15T10:27:25.819Z,24.95
2016-06-15T10:28:25.839Z,24.95
2016-06-15T10:29:25.874Z,24.96
2016-06-15T10:30:25.909Z,24.91
2016-06-15T10:31:25.958Z,24.99
2016-06-15T10:32:25.978Z,25.05
2016-06-15T10:33:25.981Z,24.99
2016-06-15T10:34:26.032Z,24.99
2016-06-15T10:35:27.441Z,25
2016-06-15T10:36:32.788Z,24.99
2016-06-15T10:37:42.573Z,24.93
2016-06-15T10:38:44.856Z,24.88
2016-06-15T10:39:31.609Z,24.85
2016-06-15T10:40:45.629Z,24.84
2016-06-15T10:41:43.757Z,24.84
2016-06-15T10:43:04.247Z,24.88
2016-06-15T10:43:49.591Z,24.84
2016-06-15T10:44:49.641Z,24.91
2016-06-15T10:46:17.289Z,24.8
2016-06-15T10:47:24.166Z,24.81
2016-06-15T10:48:33.841Z,24.83
2016-06-15T10:49:18.360Z,24.91
2016-06-15T10:50:24.144Z,24.83
2016-06-15T10:51:24.960Z,24.87
2016-06-15T10:52:43.354Z,24.83
2016-06-15T10:54:23.985Z,24.87
2016-06-15T10:55:54.363Z,24.85
2016-06-15T10:56:54.366Z,24.81
2016-06-15T10:57:54.400Z,24.9
2016-06-15T10:58:54.434Z,25
2016-06-15T10:59:54.469Z,24.99
2016-06-15T11:00:54.488Z,25.05
2016-06-15T11:01:54.507Z,25.03
2016-06-15T11:02:54.556Z,25.06
2016-06-15T11:03:54.575Z,25.05
2016-06-15T11:04:54.609Z,24.99
2016-06-15T11:05:54.675Z,24.9
2016-06-15T11:06:54.679Z,24.87
2016-06-15T11:07:54.384Z,24.83
2016-06-15T11:08:54.731Z,24.81
2016-06-15T11:09:54.766Z,24.78
2016-06-15T11:10:54.784Z,24.68
2016-06-15T11:11:54.819Z,24.45
2016-06-15T11:12:54.837Z,24.47
2016-06-15T11:13:54.715Z,24.37
2016-06-15T11:14:54.889Z,24.46
2016-06-15T11:15:54.940Z,24.35
2016-06-15T11:16:55.006Z,24.25
2016-06-15T11:17:54.993Z,24.21
2016-06-15T11:18:55.013Z,24.28
2016-06-15T11:19:55.046Z,24.2
2016-06-15T11:20:55.066Z,24.24
2016-06-15T11:21:55.178Z,24.21
2016-06-15T11:22:55.149Z,24.25
2016-06-15T11:23:55.152Z,24.2
2016-06-15T11:24:55.187Z,24.24
2016-06-15T11:25:55.220Z,24.3
2016-06-15T11:26:55.240Z,24.13
2016-06-15T11:27:55.290Z,24.16
2016-06-15T11:28:55.307Z,24.09
2016-06-15T11:29:55.327Z,23.98
2016-06-15T11:30:55.346Z,23.9
2016-06-15T11:31:55.380Z,23.65
2016-06-15T11:32:55.414Z,23.76
2016-06-15T11:33:55.433Z,23.78
2016-06-15T11:34:55.483Z,23.76
2016-06-15T11:35:55.518Z,23.78
2016-06-15T11:36:56.099Z,23.83
2016-06-15T11:37:55.851Z,23.84
2016-06-15T11:38:55.588Z,23.85
2016-06-15T11:39:55.623Z,23.8
2016-06-15T11:40:55.641Z,23.85
2016-06-15T11:41:55.661Z,23.88
2016-06-15T11:42:55.586Z,23.79
2016-06-15T11:43:55.729Z,23.87
2016-06-15T11:44:55.748Z,23.83
2016-06-15T11:45:55.782Z,23.76
2016-06-15T11:46:55.802Z,23.72
2016-06-15T11:47:55.851Z,23.79
2016-06-15T11:48:55.885Z,23.72
2016-06-15T11:49:55.905Z,23.65
2016-06-15T11:50:55.922Z,23.58
2016-06-15T11:51:55.942Z,23.66
2016-06-15T11:52:55.976Z,23.53
2016-06-15T11:53:56.010Z,23.5
2016-06-15T11:54:56.045Z,23.47
2016-06-15T11:55:56.078Z,23.36
2016-06-15T11:56:56.082Z,23.36
2016-06-15T11:57:56.147Z,23.35
2016-06-15T11:58:56.150Z,23.33
2016-06-15T11:59:56.217Z,23.31
2016-06-15T12:00:56.203Z,23.23
2016-06-15T12:01:56.223Z,23.27
2016-06-15T12:02:56.273Z,23.22
2016-06-15T12:03:56.291Z,23.17
2016-06-15T12:04:56.326Z,23.2
2016-06-15T12:05:56.343Z,23.23
2016-06-15T12:06:56.222Z,23.23
2016-06-15T12:07:57.474Z,23.23
2016-06-15T12:08:56.431Z,23.25
2016-06-15T12:09:56.450Z,23.27
2016-06-15T12:10:56.469Z,23.25
2016-06-15T12:11:56.847Z,23.38
2016-06-15T12:12:56.553Z,23.23
2016-06-15T12:13:56.603Z,23.23
2016-06-15T12:14:56.607Z,23.23
2016-06-15T12:15:56.625Z,23.15
2016-06-15T12:16:56.737Z,23.22
2016-06-15T12:17:56.677Z,23.2
2016-06-15T12:18:56.744Z,23.23
2016-06-15T12:19:56.747Z,23.36
2016-06-15T12:20:56.750Z,23.33
2016-06-15T12:21:56.784Z,23.28
2016-06-15T12:22:56.973Z,23.28
2016-06-15T12:23:56.852Z,23.36
2016-06-15T12:24:56.871Z,23.35
2016-06-15T12:25:56.749Z,23.31
2016-06-15T12:26:56.924Z,23.42
2016-06-15T12:27:56.942Z,23.39
2016-06-15T12:28:56.977Z,23.36
2016-06-15T12:29:57.012Z,23.38
2016-06-15T12:30:57.031Z,23.43
2016-06-15T12:31:57.065Z,23.51
2016-06-15T12:32:57.082Z,23.46
2016-06-15T12:33:57.117Z,23.51
2016-06-15T12:34:57.183Z,23.51
2016-06-15T12:35:57.171Z,23.65
2016-06-15T12:36:57.204Z,23.63
2016-06-15T12:37:58.630Z,23.55
2016-06-15T12:38:57.258Z,23.58
2016-06-15T12:39:57.292Z,23.66
2016-06-15T12:40:57.312Z,23.7
2016-06-15T12:41:57.360Z,23.69
2016-06-15T12:42:57.363Z,23.68
2016-06-15T12:43:57.398Z,23.69
2016-06-15T12:44:57.433Z,23.79
2016-06-15T12:45:57.452Z,23.66
2016-06-15T12:46:57.486Z,23.7
2016-06-15T12:47:57.504Z,23.65
2016-06-15T12:48:57.538Z,23.6
2016-06-15T12:49:57.573Z,23.58
2016-06-15T12:50:57.592Z,23.54
2016-06-15T12:51:57.626Z,23.61
2016-06-15T12:52:57.644Z,23.54
2016-06-15T12:53:57.679Z,23.57
2016-06-15T12:54:57.698Z,23.55
2016-06-15T12:55:57.763Z,23.63
2016-06-15T12:56:57.750Z,23.69
2016-06-15T12:57:57.784Z,23.76